Time;durP1;ratioP1;P1;durP2;ratioP2;P2;SDS_P1;SDS_P2;PMS_P1;PMS_P2;Temp;Humidity;BMP_temperature;BMP_pressure;BME280_temperature;BME280_humidity;BME280_pressure;Samples;Min_cycle;Max_cycle;Signal;HPM_P1;HPM_P2
2021/01/02 00:01:25;;;;;;;21.93;13.50;;;;;;;-1.47;85.89;94949.84;5080573;28;20184;-77
2021/01/02 00:04:06;;;;;;;17.17;11.70;;;;;;;-1.45;85.97;94948.81;5055496;28;20635;-77
2021/01/02 00:06:42;;;;;;;17.83;11.20;;;;;;;-1.46;85.52;94954.84;5055235;28;20203;-77
2021/01/02 00:09:11;;;;;;;18.30;10.53;;;;;;;-1.36;84.78;94947.47;5071020;28;20176;-77
2021/01/02 00:11:53;;;;;;;17.67;12.23;;;;;;;-1.47;85.15;94955.75;5073149;28;20191;-77
2021/01/02 00:14:40;;;;;;;19.97;12.80;;;;;;;-1.53;85.65;94950.19;5074538;28;20223;-77
2021/01/02 00:17:28;;;;;;;21.97;11.80;;;;;;;-1.53;85.80;94955.28;5096924;28;20200;-77
2021/01/02 00:20:04;;;;;;;20.33;13.70;;;;;;;-1.59;85.72;94953.06;5095423;28;20184;-76
2021/01/02 00:22:34;;;;;;;19.40;12.70;;;;;;;-1.60;85.79;94952.25;5093047;28;20194;-77
2021/01/02 00:25:04;;;;;;;16.43;11.37;;;;;;;-1.59;86.17;94961.56;5082482;28;20259;-76
2021/01/02 00:28:07;;;;;;;19.63;12.47;;;;;;;-1.56;86.26;94958.00;5098392;28;20238;-76
2021/01/02 00:30:53;;;;;;;19.10;12.17;;;;;;;-1.56;86.31;94956.28;5097681;28;20200;-77
2021/01/02 00:33:20;;;;;;;20.97;11.97;;;;;;;-1.56;86.17;94961.38;5092687;28;20229;-77
2021/01/02 00:35:49;;;;;;;19.53;11.43;;;;;;;-1.57;86.15;94959.75;5088217;28;20675;-77
2021/01/02 00:38:15;;;;;;;17.93;11.10;;;;;;;-1.56;86.04;94952.91;5088079;28;20198;-77
2021/01/02 00:40:41;;;;;;;15.20;10.20;;;;;;;-1.59;86.07;94956.47;5071577;28;20207;-77
2021/01/02 00:43:06;;;;;;;14.00;10.67;;;;;;;-1.59;86.17;94956.47;5094560;28;20200;-77
2021/01/02 00:45:32;;;;;;;16.40;10.33;;;;;;;-1.57;86.34;94952.09;5092581;28;20195;-76
2021/01/02 00:47:58;;;;;;;14.93;10.90;;;;;;;-1.54;86.24;94954.47;5071608;28;20648;-76
2021/01/02 00:50:25;;;;;;;12.10;9.67;;;;;;;-1.52;86.13;94949.28;5104040;28;20193;-77
2021/01/02 00:52:52;;;;;;;14.23;9.80;;;;;;;-1.51;85.98;94953.44;5099907;28;20194;-77
2021/01/02 00:55:42;;;;;;;13.10;9.20;;;;;;;-1.52;85.97;94947.53;5089367;28;20183;-77
2021/01/02 00:58:20;;;;;;;14.03;8.53;;;;;;;-1.52;85.81;94952.63;5071918;28;20214;-77
2021/01/02 01:00:51;;;;;;;11.47;8.33;;;;;;;-1.53;85.56;94951.00;5070083;28;20193;-76
2021/01/02 01:03:44;;;;;;;10.53;8.07;;;;;;;-1.52;85.75;94951.81;5093185;28;20191;-77
2021/01/02 01:06:11;;;;;;;14.07;8.80;;;;;;;-1.54;85.86;94949.38;5072559;28;20222;-77
2021/01/02 01:08:42;;;;;;;12.83;8.90;;;;;;;-1.54;85.61;94954.47;5073155;28;20232;-77
2021/01/02 01:11:13;;;;;;;9.40;7.60;;;;;;;-1.57;85.47;94944.47;5073609;28;20179;-76
2021/01/02 01:13:39;;;;;;;12.33;9.23;;;;;;;-1.59;85.06;94946.28;5074300;28;20658;-77
2021/01/02 01:16:05;;;;;;;12.17;8.67;;;;;;;-1.58;85.24;94953.00;5085718;28;20211;-77
2021/01/02 01:18:58;;;;;;;12.37;9.00;;;;;;;-1.61;84.93;94955.72;5073002;28;20183;-77
2021/01/02 01:21:26;;;;;;;11.03;8.93;;;;;;;-1.57;85.03;94951.28;5073325;28;20184;-77
2021/01/02 01:24:13;;;;;;;12.30;9.70;;;;;;;-1.58;85.25;94953.00;5089442;28;20213;-77
2021/01/02 01:26:51;;;;;;;14.73;10.20;;;;;;;-1.56;85.20;94952.91;5089636;28;20211;-76
2021/01/02 01:29:28;;;;;;;14.40;10.03;;;;;;;-1.59;85.05;94951.38;5091143;28;20179;-76
2021/01/02 01:31:58;;;;;;;13.27;9.37;;;;;;;-1.57;85.22;94956.38;5073272;28;20179;-76
2021/01/02 01:34:26;;;;;;;13.77;10.00;;;;;;;-1.54;85.29;94964.63;5073218;28;20233;-78
2021/01/02 01:36:52;;;;;;;14.20;10.17;;;;;;;-1.58;84.95;94955.56;5090501;28;20211;-76
2021/01/02 01:39:21;;;;;;;16.70;10.47;;;;;;;-1.61;85.48;94960.00;5090467;28;20266;-76
2021/01/02 01:41:52;;;;;;;16.53;10.73;;;;;;;-1.60;85.14;94964.16;5091511;28;20187;-76
2021/01/02 01:44:36;;;;;;;15.27;10.33;;;;;;;-1.61;85.25;94962.53;5055884;28;20543;-76
2021/01/02 01:47:13;;;;;;;13.43;9.97;;;;;;;-1.61;85.31;94972.72;5073214;28;20603;-78
2021/01/02 01:49:57;;;;;;;16.23;10.87;;;;;;;-1.61;85.60;94968.44;5090225;28;20208;-78
2021/01/02 01:52:38;;;;;;;13.93;9.57;;;;;;;-1.62;85.30;94961.72;5073235;28;20662;-76
2021/01/02 01:55:18;;;;;;;14.83;10.03;;;;;;;-1.63;85.34;94960.09;5090681;28;20188;-76
2021/01/02 01:57:45;;;;;;;14.07;10.33;;;;;;;-1.64;85.28;94961.00;5083786;28;20302;-76
2021/01/02 02:00:18;;;;;;;11.67;8.63;;;;;;;-1.68;84.85;94962.06;5072292;28;20182;-77
2021/01/02 02:02:46;;;;;;;12.77;9.33;;;;;;;-1.73;84.95;94962.34;5072978;28;20619;-77
2021/01/02 02:05:22;;;;;;;11.40;8.00;;;;;;;-1.71;85.17;94962.25;5074407;28;20187;-77
2021/01/02 02:08:08;;;;;;;10.57;7.93;;;;;;;-1.72;85.36;94960.63;5083388;28;20175;-76
2021/01/02 02:10:47;;;;;;;11.20;8.43;;;;;;;-1.76;85.60;94959.16;5073193;28;20184;-76
2021/01/02 02:13:13;;;;;;;11.23;8.20;;;;;;;-1.73;85.61;94964.06;5076826;28;20217;-76
2021/01/02 02:15:52;;;;;;;10.77;8.33;;;;;;;-1.73;85.40;94966.63;5079807;28;20191;-76
2021/01/02 02:18:22;;;;;;;13.17;8.80;;;;;;;-1.71;85.30;94972.44;5097128;28;20643;-77
2021/01/02 02:20:50;;;;;;;12.80;9.30;;;;;;;-1.72;85.72;94969.06;5076169;28;20183;-76
2021/01/02 02:23:22;;;;;;;12.90;8.77;;;;;;;-1.69;85.66;94968.06;5076492;28;20199;-77
2021/01/02 02:26:03;;;;;;;13.50;9.30;;;;;;;-1.65;85.63;94968.72;5075600;28;20194;-77
2021/01/02 02:28:44;;;;;;;14.87;9.47;;;;;;;-1.63;85.51;94965.19;5091258;28;20212;-77
2021/01/02 02:31:10;;;;;;;12.90;9.63;;;;;;;-1.62;85.53;94971.09;5093230;28;20187;-76
2021/01/02 02:33:36;;;;;;;12.40;9.93;;;;;;;-1.61;85.57;94968.44;5092781;28;20194;-77
2021/01/02 02:36:04;;;;;;;15.27;10.17;;;;;;;-1.60;85.78;94974.34;5092879;28;20206;-76
2021/01/02 02:38:37;;;;;;;15.23;10.43;;;;;;;-1.59;85.54;94963.25;5093641;28;20207;-76
2021/01/02 02:41:04;;;;;;;17.03;11.60;;;;;;;-1.61;85.38;94967.63;5075959;28;20667;-77
2021/01/02 02:43:30;;;;;;;14.00;9.60;;;;;;;-1.59;85.26;94968.34;5059208;28;20174;-76
2021/01/02 02:45:56;;;;;;;12.50;9.47;;;;;;;-1.58;85.36;94973.38;5075864;28;20695;-77
2021/01/02 02:48:22;;;;;;;16.20;10.50;;;;;;;-1.58;85.25;94978.47;5080710;28;20600;-76
2021/01/02 02:50:52;;;;;;;15.20;10.03;;;;;;;-1.55;85.29;94972.38;5075519;28;20186;-77
2021/01/02 02:53:17;;;;;;;16.30;10.90;;;;;;;-1.55;85.41;94969.84;5075979;28;20670;-77
2021/01/02 02:55:43;;;;;;;14.67;9.97;;;;;;;-1.53;85.57;94973.91;5075712;28;20252;-76
2021/01/02 02:58:10;;;;;;;14.40;10.00;;;;;;;-1.57;85.12;94972.47;5074964;28;20276;-77
2021/01/02 03:00:36;;;;;;;13.40;9.27;;;;;;;-1.53;85.10;94979.00;5091583;28;20214;-77
2021/01/02 03:03:02;;;;;;;9.43;7.40;;;;;;;-1.60;84.72;94980.25;5092570;28;20194;-76
2021/01/02 03:05:28;;;;;;;9.37;7.13;;;;;;;-1.59;85.09;94978.53;5092611;28;20175;-76
2021/01/02 03:07:53;;;;;;;10.87;7.67;;;;;;;-1.55;84.77;94982.56;5092568;28;20175;-76
2021/01/02 03:10:20;;;;;;;10.40;7.20;;;;;;;-1.55;84.78;94980.84;5096858;28;20561;-76
2021/01/02 03:12:47;;;;;;;9.93;8.10;;;;;;;-1.56;84.74;94979.19;5091842;28;20179;-76
2021/01/02 03:15:14;;;;;;;12.07;8.27;;;;;;;-1.51;84.64;94984.81;5075605;28;20176;-76
2021/01/02 03:17:43;;;;;;;9.73;7.37;;;;;;;-1.51;84.43;94984.81;5075222;28;20214;-77
2021/01/02 03:20:10;;;;;;;10.20;7.87;;;;;;;-1.54;84.39;94974.81;5079757;28;20524;-77
2021/01/02 03:22:38;;;;;;;12.00;9.27;;;;;;;-1.57;84.25;94977.56;5083068;28;20184;-76
2021/01/02 03:25:04;;;;;;;10.70;8.53;;;;;;;-1.50;84.58;94978.84;5091933;28;20180;-77
2021/01/02 03:27:29;;;;;;;11.73;8.30;;;;;;;-1.42;84.65;94979.19;5092962;28;20204;-76
2021/01/02 03:29:54;;;;;;;10.50;7.87;;;;;;;-1.48;84.55;94979.56;5090793;28;20187;-77
2021/01/02 03:32:19;;;;;;;12.27;7.73;;;;;;;-1.49;85.05;94985.56;5092334;28;20191;-77
2021/01/02 03:34:45;;;;;;;11.03;8.23;;;;;;;-1.50;84.89;94978.84;5091808;28;20197;-77
2021/01/02 03:37:10;;;;;;;11.07;8.10;;;;;;;-1.48;84.96;94981.31;5074659;28;20501;-77
2021/01/02 03:39:36;;;;;;;11.47;7.53;;;;;;;-1.49;85.09;94983.03;5091643;28;20179;-76
2021/01/02 03:42:02;;;;;;;12.17;8.47;;;;;;;-1.58;84.74;94973.38;5092065;28;20583;-77
2021/01/02 03:44:27;;;;;;;12.60;8.63;;;;;;;-1.58;84.90;94973.38;5074686;28;20752;-77
2021/01/02 03:46:52;;;;;;;12.83;9.23;;;;;;;-1.56;84.97;94956.28;5074728;28;20199;-77
2021/01/02 03:49:18;;;;;;;13.57;9.67;;;;;;;-1.56;85.08;94960.56;5092662;28;20658;-77
2021/01/02 03:51:43;;;;;;;14.83;9.67;;;;;;;-1.57;84.82;94964.84;5075947;28;20229;-77
2021/01/02 03:54:08;;;;;;;13.57;9.37;;;;;;;-1.58;84.93;94968.28;5096351;28;20183;-76
2021/01/02 03:56:33;;;;;;;12.57;9.33;;;;;;;-1.58;85.41;94960.66;5092396;28;20199;-77
2021/01/02 03:58:59;;;;;;;13.77;9.60;;;;;;;-1.64;85.06;94966.09;5074321;28;20193;-76
2021/01/02 04:01:24;;;;;;;13.13;9.23;;;;;;;-1.63;84.91;94957.53;5074115;28;20266;-76
2021/01/02 04:03:50;;;;;;;15.43;10.23;;;;;;;-1.65;85.73;94953.44;5083526;28;20211;-78
2021/01/02 04:06:23;;;;;;;17.03;11.90;;;;;;;-1.68;86.23;94958.69;5072398;28;20281;-77
2021/01/02 04:08:48;;;;;;;19.40;12.37;;;;;;;-1.65;85.97;94961.09;5058179;28;20896;-78
2021/01/02 04:11:13;;;;;;;17.87;12.60;;;;;;;-1.68;86.38;94971.44;5092997;28;20187;-78
2021/01/02 04:13:39;;;;;;;20.87;13.23;;;;;;;-1.65;86.11;94967.00;5095207;28;20267;-78
2021/01/02 04:16:04;;;;;;;18.83;12.20;;;;;;;-1.62;85.97;94966.00;5087051;28;20260;-77
2021/01/02 04:18:29;;;;;;;16.03;10.67;;;;;;;-1.61;86.18;94968.44;5092723;28;20635;-78
2021/01/02 04:20:55;;;;;;;13.30;9.67;;;;;;;-1.59;85.96;94969.19;5092789;28;20331;-77
2021/01/02 04:23:20;;;;;;;18.60;11.77;;;;;;;-1.57;85.91;94964.00;5091992;28;20180;-78
2021/01/02 04:25:45;;;;;;;19.77;11.97;;;;;;;-1.56;86.12;94960.56;5092851;28;20615;-78
2021/01/02 04:28:11;;;;;;;15.87;11.07;;;;;;;-1.56;85.90;94963.91;5091494;28;20209;-78
2021/01/02 04:30:36;;;;;;;17.87;11.47;;;;;;;-1.52;85.77;94962.00;5074282;28;20587;-78
2021/01/02 04:33:02;;;;;;;18.83;12.10;;;;;;;-1.53;85.91;94960.38;5091927;28;20188;-78
2021/01/02 04:35:27;;;;;;;18.67;12.27;;;;;;;-1.58;86.37;94965.75;5089468;28;20218;-78
2021/01/02 04:37:52;;;;;;;17.73;12.07;;;;;;;-1.59;86.00;94965.81;5068505;28;20199;-77
2021/01/02 04:40:18;;;;;;;19.13;13.10;;;;;;;-1.61;86.12;94967.63;5091805;28;20693;-78
2021/01/02 04:42:43;;;;;;;21.03;13.70;;;;;;;-1.61;86.38;94973.53;5083972;28;20179;-78
2021/01/02 04:45:09;;;;;;;22.07;13.67;;;;;;;-1.61;86.35;94965.91;5075710;28;20315;-78
2021/01/02 04:47:36;;;;;;;24.57;15.43;;;;;;;-1.59;86.28;94956.47;5074299;28;20205;-78
2021/01/02 04:50:06;;;;;;;29.40;17.53;;;;;;;-1.63;86.91;94965.19;5074342;28;20325;-78
2021/01/02 04:52:32;;;;;;;26.40;16.30;;;;;;;-1.63;86.96;94962.63;5074217;28;20211;-78
2021/01/02 04:54:58;;;;;;;26.83;16.57;;;;;;;-1.64;86.76;94955.91;5074206;28;20199;-77
2021/01/02 04:57:23;;;;;;;28.70;16.67;;;;;;;-1.66;87.13;94957.72;5077054;28;20223;-78
2021/01/02 04:59:49;;;;;;;27.20;17.07;;;;;;;-1.64;86.81;94960.19;5073894;28;20190;-77
2021/01/02 05:02:19;;;;;;;31.07;17.77;;;;;;;-1.61;87.28;94963.34;5092017;28;20181;-77
2021/01/02 05:04:48;;;;;;;30.07;18.73;;;;;;;-1.61;87.00;94968.44;5092274;28;20215;-78
2021/01/02 05:07:23;;;;;;;32.30;17.73;;;;;;;-1.61;86.80;94967.63;5080066;28;20248;-78
2021/01/02 05:09:49;;;;;;;35.03;18.77;;;;;;;-1.61;87.35;94972.72;5073934;28;20189;-77
2021/01/02 05:12:27;;;;;;;41.60;20.93;;;;;;;-1.63;87.13;94970.25;5090836;28;20190;-78
2021/01/02 05:15:00;;;;;;;37.53;20.60;;;;;;;-1.64;87.26;94968.63;5074087;28;20187;-78
2021/01/02 05:17:27;;;;;;;39.37;19.90;;;;;;;-1.63;87.29;94975.34;5074851;28;20277;-77
2021/01/02 05:20:21;;;;;;;41.53;21.83;;;;;;;-1.66;87.62;94975.53;5084891;28;20191;-77
2021/01/02 05:22:46;;;;;;;42.73;21.57;;;;;;;-1.63;87.71;94965.19;5016476;28;20205;-78
2021/01/02 05:25:12;;;;;;;59.20;23.50;;;;;;;-1.62;87.62;94976.19;4977058;28;20194;-77
2021/01/02 05:27:39;;;;;;;50.77;25.17;;;;;;;-1.60;87.89;94977.72;5008582;28;20212;-78
2021/01/02 05:30:15;;;;;;;48.67;23.93;;;;;;;-1.61;88.08;94980.34;5003248;28;20186;-78
2021/01/02 05:32:57;;;;;;;56.37;23.90;;;;;;;-1.61;88.27;94981.19;5009808;28;20200;-78
2021/01/02 05:35:23;;;;;;;63.57;26.53;;;;;;;-1.58;88.09;94982.75;4976470;28;20204;-78
2021/01/02 05:37:48;;;;;;;60.93;23.77;;;;;;;-1.61;87.95;94981.19;5007173;28;20243;-78
2021/01/02 05:40:33;;;;;;;62.97;26.33;;;;;;;-1.65;88.46;94981.44;4998712;28;20670;-78
2021/01/02 05:43:00;;;;;;;56.37;24.27;;;;;;;-1.63;88.12;94983.00;5007328;28;20625;-78
2021/01/02 05:45:27;;;;;;;93.57;25.40;;;;;;;-1.64;88.58;94986.44;4991721;28;20205;-78
2021/01/02 05:47:56;;;;;;;89.30;23.07;;;;;;;-1.62;88.27;94984.63;4994896;28;20261;-78
2021/01/02 05:50:22;;;;;;;63.33;22.77;;;;;;;-1.62;88.44;94983.81;5001652;28;21064;-78
2021/01/02 05:52:49;;;;;;;108.20;25.33;;;;;;;-1.64;88.45;94976.28;5007901;28;20693;-78
2021/01/02 05:55:27;;;;;;;161.63;26.40;;;;;;;-1.70;89.19;94976.63;5016117;28;20186;-77
2021/01/02 05:57:53;;;;;;;128.03;25.50;;;;;;;-1.75;89.49;94981.16;4978750;28;20209;-78
2021/01/02 06:00:20;;;;;;;75.70;22.93;;;;;;;-1.71;88.78;94982.63;5090450;28;20198;-78
2021/01/02 06:02:45;;;;;;;60.27;22.07;;;;;;;-1.71;88.70;94980.88;5093432;28;20555;-78
2021/01/02 06:05:10;;;;;;;60.97;19.73;;;;;;;-1.69;89.13;94983.34;5093327;28;20262;-78
2021/01/02 06:07:41;;;;;;;57.00;21.13;;;;;;;-1.66;89.16;94988.28;5075030;28;20208;-77
2021/01/02 06:10:08;;;;;;;123.87;23.53;;;;;;;-1.67;89.61;94988.38;5075082;28;20180;-77
2021/01/02 06:12:39;;;;;;;54.93;21.53;;;;;;;-1.64;89.08;94995.81;5091746;28;20667;-76
2021/01/02 06:15:06;;;;;;;55.13;22.63;;;;;;;-1.60;89.22;95004.91;5059681;28;20710;-78
2021/01/02 06:17:49;;;;;;;56.43;21.80;;;;;;;-1.60;88.86;95003.19;5088110;28;20251;-78
2021/01/02 06:20:16;;;;;;;55.90;20.53;;;;;;;-1.64;89.07;94991.53;5071440;28;20185;-78
2021/01/02 06:22:42;;;;;;;56.33;21.03;;;;;;;-1.62;88.93;94997.38;5087690;28;20187;-77
2021/01/02 06:25:09;;;;;;;41.67;19.07;;;;;;;-1.57;89.15;94992.03;5087362;28;20198;-78
2021/01/02 06:27:38;;;;;;;63.10;21.60;;;;;;;-1.64;88.73;94989.00;5074488;28;20349;-76
2021/01/02 06:30:04;;;;;;;109.20;23.50;;;;;;;-1.68;89.06;94984.97;5074036;28;20179;-77
2021/01/02 06:32:29;;;;;;;106.50;22.93;;;;;;;-1.69;89.22;94985.06;5094053;28;20558;-77
2021/01/02 06:35:10;;;;;;;72.43;22.23;;;;;;;-1.65;89.26;94989.91;5094106;28;20650;-77
2021/01/02 06:37:50;;;;;;;153.33;24.20;;;;;;;-1.64;89.27;94993.28;5093949;28;20572;-77
2021/01/02 06:40:27;;;;;;;317.70;33.07;;;;;;;-1.70;89.40;94991.88;5093801;28;20590;-77
2021/01/02 06:43:00;;;;;;;438.03;39.83;;;;;;;-1.76;89.74;94989.72;5096449;28;20201;-77
2021/01/02 06:45:34;;;;;;;428.13;35.70;;;;;;;-1.71;89.42;94978.34;5077376;28;20183;-78
2021/01/02 06:47:59;;;;;;;95.97;22.50;;;;;;;-1.71;89.30;94987.69;5094426;28;20254;-77
2021/01/02 06:50:30;;;;;;;84.23;20.17;;;;;;;-1.77;89.70;94993.97;5092625;28;20270;-77
2021/01/02 06:52:56;;;;;;;80.97;21.27;;;;;;;-1.75;89.93;94994.72;5057869;28;20662;-77
2021/01/02 06:55:22;;;;;;;425.50;36.70;;;;;;;-1.77;89.61;94988.03;5092737;28;20186;-78
2021/01/02 06:57:48;;;;;;;256.67;31.37;;;;;;;-1.77;89.65;94988.91;5092216;28;20211;-77
2021/01/02 07:00:26;;;;;;;231.10;32.67;;;;;;;-1.72;89.53;94991.16;5092679;28;20192;-76
2021/01/02 07:02:52;;;;;;;72.60;22.40;;;;;;;-1.73;89.91;94985.25;5093362;28;20556;-78
2021/01/02 07:05:43;;;;;;;95.60;24.17;;;;;;;-1.75;89.91;94986.25;5094189;28;20190;-78
2021/01/02 07:08:42;;;;;;;294.73;32.67;;;;;;;-1.83;89.99;94980.78;5076067;28;20187;-77
2021/01/02 07:11:37;;;;;;;521.20;47.30;;;;;;;-1.84;90.39;94981.69;5075656;28;20171;-77
2021/01/02 07:14:12;;;;;;;222.27;29.27;;;;;;;-1.82;90.23;94990.88;5076021;28;20187;-77
2021/01/02 07:16:42;;;;;;;411.47;37.00;;;;;;;-1.84;90.00;94996.97;5079751;28;20228;-78
2021/01/02 07:22:00;;;;;;;201.40;27.80;;;;;;;-1.82;90.21;95001.03;5093917;28;20187;-77
2021/01/02 07:24:33;;;;;;;142.93;22.13;;;;;;;-1.73;89.90;94989.53;5075434;28;20719;-77
2021/01/02 07:27:03;;;;;;;122.80;26.73;;;;;;;-1.78;90.02;94996.59;5088876;28;20549;-77
2021/01/02 07:29:30;;;;;;;184.03;26.50;;;;;;;-1.82;90.02;95006.13;5075316;28;20195;-77
2021/01/02 07:32:06;;;;;;;107.70;26.20;;;;;;;-1.81;90.21;95007.78;5092359;28;20221;-78
2021/01/02 07:34:31;;;;;;;50.57;21.03;;;;;;;-1.77;89.84;95013.50;5092476;28;20200;-78
2021/01/02 07:37:01;;;;;;;50.97;20.37;;;;;;;-1.69;89.82;94993.53;5058652;28;20207;-78
2021/01/02 07:39:26;;;;;;;46.57;19.33;;;;;;;-1.65;89.84;94995.00;5099788;28;20182;-78
2021/01/02 07:41:54;;;;;;;47.63;21.17;;;;;;;-1.69;89.74;94997.78;5091722;28;20563;-78
2021/01/02 07:44:20;;;;;;;43.47;21.27;;;;;;;-1.65;89.61;94996.72;5091064;28;20176;-77
2021/01/02 07:46:47;;;;;;;49.60;23.53;;;;;;;-1.69;89.85;95003.72;5091929;28;20818;-77
2021/01/02 07:49:16;;;;;;;39.73;17.83;;;;;;;-1.60;89.66;95000.63;5074632;28;20324;-77
2021/01/02 07:51:45;;;;;;;40.80;19.37;;;;;;;-1.63;89.40;95002.53;5075639;28;20210;-78
2021/01/02 07:54:10;;;;;;;48.33;23.77;;;;;;;-1.71;89.41;95015.72;5091913;28;20186;-77
2021/01/02 07:56:37;;;;;;;40.60;18.77;;;;;;;-1.67;89.46;95017.19;5092268;28;20218;-78
2021/01/02 07:59:22;;;;;;;37.53;18.97;;;;;;;-1.67;89.43;95009.56;5074993;28;20592;-77
2021/01/02 08:01:52;;;;;;;42.73;19.73;;;;;;;-1.65;89.44;95012.81;5074916;28;20171;-78
2021/01/02 08:04:19;;;;;;;36.40;18.30;;;;;;;-1.52;88.70;95008.66;5074976;28;20175;-78
2021/01/02 08:06:49;;;;;;;38.20;17.03;;;;;;;-1.52;88.61;95015.47;5062033;28;20230;-77
2021/01/02 08:09:14;;;;;;;45.60;22.17;;;;;;;-1.60;89.12;95010.00;5074502;28;20188;-78
2021/01/02 08:11:57;;;;;;;38.50;18.10;;;;;;;-1.62;89.38;95016.91;5092957;28;20186;-76
2021/01/02 08:14:24;;;;;;;44.43;20.60;;;;;;;-1.69;89.28;95021.53;5057964;28;20184;-77
2021/01/02 08:16:56;;;;;;;40.00;19.63;;;;;;;-1.64;89.60;95027.19;5077442;28;20214;-77
2021/01/02 08:19:22;;;;;;;42.70;21.47;;;;;;;-1.54;88.71;95023.22;5082631;28;20728;-77
2021/01/02 08:21:47;;;;;;;45.70;22.53;;;;;;;-1.60;88.85;95023.56;5074694;28;20191;-78
2021/01/02 08:24:13;;;;;;;36.63;18.60;;;;;;;-1.53;88.35;95024.03;5074420;28;20251;-78
2021/01/02 08:26:39;;;;;;;41.07;19.33;;;;;;;-1.59;88.74;95017.56;5074161;28;20202;-77
2021/01/02 08:29:04;;;;;;;39.47;20.47;;;;;;;-1.52;88.78;95018.84;5089265;28;20176;-77
2021/01/02 08:31:30;;;;;;;41.20;21.33;;;;;;;-1.51;88.60;95023.03;5089911;28;20187;-78
2021/01/02 08:33:56;;;;;;;41.60;19.97;;;;;;;-1.42;88.03;95030.13;5090581;28;20577;-78
2021/01/02 08:36:21;;;;;;;31.27;17.33;;;;;;;-1.43;87.97;95018.31;5073353;28;20202;-77
2021/01/02 08:39:00;;;;;;;33.80;17.10;;;;;;;-1.37;87.37;95021.44;5091174;28;20257;-78
2021/01/02 08:41:26;;;;;;;39.33;19.20;;;;;;;-1.46;87.83;95018.50;5106064;28;20191;-78
2021/01/02 08:43:54;;;;;;;38.37;18.80;;;;;;;-1.46;87.90;95021.03;5091863;28;20178;-78
2021/01/02 08:46:23;;;;;;;31.53;17.97;;;;;;;-1.30;87.59;95025.25;5092820;28;20282;-78
2021/01/02 08:48:49;;;;;;;32.63;16.97;;;;;;;-1.38;87.16;95027.44;5108513;28;20181;-78
2021/01/02 08:51:24;;;;;;;30.43;16.50;;;;;;;-1.39;87.18;95023.25;5076283;28;20217;-78
2021/01/02 08:53:50;;;;;;;34.60;19.43;;;;;;;-1.27;87.35;95025.06;5057130;28;20659;-78
2021/01/02 08:56:26;;;;;;;32.13;17.83;;;;;;;-1.50;86.94;95024.69;5107928;28;20305;-78
2021/01/02 08:58:52;;;;;;;30.87;16.33;;;;;;;-1.40;86.25;95032.63;5109225;28;20183;-78
2021/01/02 09:01:18;;;;;;;27.73;14.77;;;;;;;-1.43;86.33;95028.50;5090008;28;20183;-78
2021/01/02 09:03:43;;;;;;;28.87;15.50;;;;;;;-1.42;86.69;95031.88;5075493;28;20737;-77
2021/01/02 09:06:20;;;;;;;33.47;17.13;;;;;;;-1.39;86.07;95031.72;5091886;28;20222;-77
2021/01/02 09:08:58;;;;;;;30.63;17.33;;;;;;;-1.45;86.26;95037.16;5090105;28;20639;-77
2021/01/02 09:11:23;;;;;;;35.20;17.73;;;;;;;-1.40;86.61;95034.34;5076940;28;20192;-77
2021/01/02 09:13:49;;;;;;;32.53;17.90;;;;;;;-1.29;86.42;95032.00;5096890;28;20182;-77
2021/01/02 09:16:15;;;;;;;30.07;16.83;;;;;;;-1.33;86.49;95035.63;5090200;28;20202;-78
2021/01/02 09:18:41;;;;;;;30.07;17.33;;;;;;;-1.24;86.33;95038.44;5089263;28;20217;-76
2021/01/02 09:21:10;;;;;;;28.70;17.10;;;;;;;-1.17;86.07;95028.72;5092530;28;20176;-76
2021/01/02 09:23:37;;;;;;;31.23;18.53;;;;;;;-1.14;85.23;95038.75;5077493;28;20324;-78
2021/01/02 09:26:03;;;;;;;33.43;18.60;;;;;;;-1.15;85.29;95034.53;5077404;28;20669;-78
2021/01/02 09:28:40;;;;;;;31.27;18.03;;;;;;;-1.25;85.35;95034.25;5093897;28;20602;-78
2021/01/02 09:31:05;;;;;;;30.80;17.40;;;;;;;-1.31;85.27;95033.81;5095836;28;20180;-78
2021/01/02 09:33:30;;;;;;;26.27;16.60;;;;;;;-1.30;84.83;95032.91;5093988;28;20186;-78
2021/01/02 09:35:56;;;;;;;30.47;17.17;;;;;;;-1.32;85.17;95039.81;5094038;28;20617;-78
2021/01/02 09:38:21;;;;;;;28.67;18.00;;;;;;;-1.37;85.43;95044.34;5095395;28;20175;-78
2021/01/02 09:40:46;;;;;;;32.97;18.83;;;;;;;-1.18;85.31;95045.75;5086759;28;20187;-78
2021/01/02 09:43:14;;;;;;;33.33;20.13;;;;;;;-1.22;85.45;95038.38;5090537;28;20216;-78
2021/01/02 09:45:39;;;;;;;33.27;20.80;;;;;;;-1.21;85.33;95037.47;5077317;28;20217;-77
2021/01/02 09:48:06;;;;;;;30.77;18.93;;;;;;;-1.23;85.18;95041.84;5077018;28;20250;-77
2021/01/02 09:50:33;;;;;;;27.50;16.93;;;;;;;-1.29;84.59;95037.09;5077253;28;20275;-77
2021/01/02 09:52:59;;;;;;;32.93;19.53;;;;;;;-1.28;85.07;95036.19;5093589;28;20179;-77
2021/01/02 09:55:24;;;;;;;31.47;18.87;;;;;;;-1.31;85.45;95037.19;5093638;28;20266;-77
2021/01/02 09:57:49;;;;;;;31.23;17.77;;;;;;;-1.23;85.24;95046.94;5093631;28;20240;-77
2021/01/02 10:00:16;;;;;;;110.63;55.33;;;;;;;-1.18;84.79;95050.84;5095002;28;20639;-78
2021/01/02 10:02:42;;;;;;;29.30;19.50;;;;;;;-1.12;84.74;95047.13;5095351;28;20547;-76
2021/01/02 10:05:08;;;;;;;33.63;21.00;;;;;;;-1.10;84.62;95052.13;5093643;28;20189;-77
2021/01/02 10:07:33;;;;;;;26.07;15.83;;;;;;;-1.31;84.27;95042.28;5093386;28;20199;-76
2021/01/02 10:09:59;;;;;;;27.47;17.20;;;;;;;-1.33;84.21;95041.53;5076367;28;20705;-76
2021/01/02 10:12:24;;;;;;;26.73;16.80;;;;;;;-1.39;84.49;95039.34;5083315;28;20209;-76
2021/01/02 10:14:49;;;;;;;27.50;16.30;;;;;;;-1.38;84.02;95053.72;5091449;28;20647;-76
2021/01/02 10:17:15;;;;;;;25.63;15.77;;;;;;;-1.35;84.78;95045.06;5092038;28;20720;-76
2021/01/02 10:19:46;;;;;;;30.00;17.53;;;;;;;-1.38;83.92;95046.06;5091270;28;20236;-76
2021/01/02 10:22:12;;;;;;;25.03;15.63;;;;;;;-1.49;83.93;95045.88;5074180;28;20183;-78
2021/01/02 10:24:38;;;;;;;27.07;18.13;;;;;;;-1.52;84.10;95034.13;5092970;28;20616;-77
2021/01/02 10:27:05;;;;;;;26.20;16.97;;;;;;;-1.47;84.08;95047.44;5092796;28;20271;-77
2021/01/02 10:29:30;;;;;;;26.17;17.37;;;;;;;-1.54;84.35;95041.03;5109969;28;20313;-78
2021/01/02 10:32:00;;;;;;;33.77;21.30;;;;;;;-1.45;84.32;95035.41;5074936;28;20258;-77
2021/01/02 10:34:26;;;;;;;32.60;20.00;;;;;;;-1.41;84.38;95038.63;5076441;28;20196;-77
2021/01/02 10:36:51;;;;;;;31.40;20.27;;;;;;;-1.32;84.39;95032.19;5093891;28;20735;-76
2021/01/02 10:39:16;;;;;;;33.20;20.17;;;;;;;-1.29;84.26;95026.91;5093867;28;20849;-78
2021/01/02 10:41:42;;;;;;;33.93;20.87;;;;;;;-1.18;84.35;95027.91;5094134;28;20182;-77
2021/01/02 10:44:07;;;;;;;26.77;16.97;;;;;;;-1.23;83.49;95024.81;5082481;28;20183;-77
2021/01/02 10:46:32;;;;;;;28.73;18.03;;;;;;;-1.24;83.58;95025.72;5084296;28;20701;-77
2021/01/02 10:48:58;;;;;;;26.63;17.00;;;;;;;-1.31;83.90;95019.34;5093897;28;20262;-77
2021/01/02 10:51:23;;;;;;;25.40;16.97;;;;;;;-1.28;83.92;95016.63;5075819;28;20176;-75
2021/01/02 10:53:49;;;;;;;25.50;17.23;;;;;;;-1.09;83.42;95020.63;5093928;28;20171;-77
2021/01/02 10:56:17;;;;;;;25.40;16.67;;;;;;;-1.10;83.41;95013.91;5057663;28;20208;-78
2021/01/02 10:58:43;;;;;;;25.40;15.50;;;;;;;-1.17;82.20;95006.59;5075459;28;20244;-77
2021/01/02 11:01:08;;;;;;;25.73;17.03;;;;;;;-1.07;82.30;95000.97;5092664;28;20180;-78
2021/01/02 11:03:34;;;;;;;30.20;18.83;;;;;;;-1.00;82.68;94997.16;5093848;28;20175;-77
2021/01/02 11:06:03;;;;;;;22.57;16.07;;;;;;;-0.94;81.76;94989.16;5093022;28;20621;-77
2021/01/02 11:08:29;;;;;;;23.13;14.70;;;;;;;-0.88;81.13;94992.16;5092201;28;20263;-77
2021/01/02 11:10:54;;;;;;;21.00;14.70;;;;;;;-0.93;81.31;94985.69;5092233;28;20274;-77
2021/01/02 11:13:19;;;;;;;23.47;14.87;;;;;;;-1.00;81.23;94990.31;5093427;28;20598;-76
2021/01/02 11:15:46;;;;;;;26.70;16.20;;;;;;;-1.01;81.52;94985.31;5092390;28;20196;-78
2021/01/02 11:18:12;;;;;;;28.37;17.33;;;;;;;-0.92;81.33;94988.13;5092653;28;20204;-77
2021/01/02 11:20:37;;;;;;;25.40;15.63;;;;;;;-0.96;81.45;94980.78;5093293;28;20631;-77
2021/01/02 11:23:02;;;;;;;24.97;15.17;;;;;;;-0.92;80.71;94972.03;5075455;28;20184;-77
2021/01/02 11:25:28;;;;;;;21.50;13.63;;;;;;;-0.91;79.97;94973.66;5093215;28;20201;-78
2021/01/02 11:27:53;;;;;;;20.77;14.07;;;;;;;-0.84;79.19;94964.75;5081305;28;20180;-77
2021/01/02 11:30:19;;;;;;;18.10;12.23;;;;;;;-0.73;79.51;94958.97;5089520;28;20230;-78
2021/01/02 11:32:44;;;;;;;18.47;11.80;;;;;;;-0.90;79.76;94962.56;5075214;28;20192;-78